createdAt,value
2022-09-05T00:00:58.887Z,84.64
2022-09-05T00:02:03.598Z,84.67
2022-09-05T00:03:21.102Z,84.75
2022-09-05T00:04:34.899Z,84.71
2022-09-05T00:05:54.082Z,84.64
2022-09-05T00:07:06.472Z,84.33
2022-09-05T00:08:15.825Z,84.29
2022-09-05T00:09:42.517Z,84.41
2022-09-05T00:11:40.917Z,84.27
2022-09-05T00:12:21.332Z,84.75
2022-09-05T00:13:25.457Z,84.65
2022-09-05T00:14:34.142Z,85.05
2022-09-05T00:16:11.342Z,85.15
2022-09-05T00:18:00.231Z,85.07
2022-09-05T00:24:21.739Z,85.21
2022-09-05T00:24:27.482Z,85.41
2022-09-05T00:24:29.484Z,85.34
2022-09-05T00:24:37.606Z,85.13
2022-09-05T00:25:31.216Z,85.85
2022-09-05T00:26:50.324Z,86.09
2022-09-05T00:27:52.630Z,86.63
2022-09-05T00:29:06.722Z,86.56
2022-09-05T00:31:07.504Z,86.67
2022-09-05T00:31:55.439Z,86.25
2022-09-05T00:33:01.746Z,86.24
2022-09-05T00:34:24.872Z,86.03
2022-09-05T00:35:43.877Z,86.14
2022-09-05T00:36:47.577Z,86.67
2022-09-05T00:37:50.597Z,86.51
2022-09-05T00:39:03.656Z,86.53
2022-09-05T00:40:27.758Z,86.31
2022-09-05T00:41:32.824Z,86.49
2022-09-05T00:42:36.433Z,86.54
2022-09-05T00:43:41.555Z,86.42
2022-09-05T00:44:58.913Z,86.60
2022-09-05T00:46:08.635Z,86.64
2022-09-05T00:47:14.197Z,86.58
2022-09-05T00:48:24.045Z,86.50
2022-09-05T00:49:33.567Z,86.62
2022-09-05T00:50:38.165Z,86.70
2022-09-05T00:52:00.338Z,86.89
2022-09-05T00:53:08.126Z,87.47
2022-09-05T00:54:15.939Z,87.46
2022-09-05T00:55:25.265Z,87.40
2022-09-05T00:56:27.575Z,87.47
2022-09-05T00:57:48.461Z,87.21
2022-09-05T00:59:08.965Z,86.99
2022-09-05T01:00:23.875Z,87.03
2022-09-05T01:01:25.817Z,87.21
2022-09-05T01:02:27.782Z,87.04
2022-09-05T01:03:35.482Z,86.84
2022-09-05T01:04:40.211Z,86.72
2022-09-05T01:06:00.712Z,86.27
2022-09-05T01:07:07.263Z,86.40
2022-09-05T01:08:12.113Z,86.29
2022-09-05T01:09:20.118Z,85.94
2022-09-05T01:10:42.325Z,86.10
2022-09-05T01:12:02.820Z,86.25
2022-09-05T01:13:19.505Z,85.93
2022-09-05T01:14:37.156Z,86.08
2022-09-05T01:15:51.897Z,86.02
2022-09-05T01:17:08.739Z,85.81
2022-09-05T01:18:25.559Z,85.83
2022-09-05T01:19:38.632Z,85.61
2022-09-05T01:20:40.474Z,85.90
2022-09-05T01:21:54.556Z,85.80
2022-09-05T01:23:08.469Z,85.58
2022-09-05T01:24:29.363Z,85.70
2022-09-05T01:25:48.982Z,85.92
2022-09-05T01:27:00.002Z,85.96
2022-09-05T01:29:15.524Z,86.18
2022-09-05T01:29:30.243Z,85.94
2022-09-05T01:30:47.715Z,85.90
2022-09-05T01:31:50.484Z,86.25
2022-09-05T01:32:52.252Z,86.00
2022-09-05T01:34:03.599Z,86.32
2022-09-05T01:35:24.183Z,86.10
2022-09-05T01:36:35.322Z,86.11
2022-09-05T01:37:56.126Z,85.85
2022-09-05T01:39:40.851Z,85.61
2022-09-05T01:40:38.650Z,85.70
2022-09-05T01:41:46.384Z,85.80
2022-09-05T01:42:49.039Z,85.98
2022-09-05T01:43:59.002Z,86.00
2022-09-05T01:45:06.724Z,85.88
2022-09-05T01:46:17.913Z,86.06
2022-09-05T01:47:31.011Z,85.92
2022-09-05T01:48:33.215Z,85.89
2022-09-05T01:49:34.975Z,85.88
2022-09-05T01:50:47.648Z,85.74
2022-09-05T01:52:02.292Z,85.71
2022-09-05T01:53:26.090Z,85.71
2022-09-05T01:54:43.226Z,85.52
2022-09-05T01:56:04.736Z,85.68
2022-09-05T01:57:36.563Z,85.59
2022-09-05T01:58:57.105Z,85.35
2022-09-05T02:00:06.389Z,85.29
2022-09-05T02:01:32.671Z,85.52
2022-09-05T02:02:41.420Z,85.59
2022-09-05T02:03:52.413Z,85.67
2022-09-05T02:04:54.198Z,85.83
2022-09-05T02:06:08.461Z,85.52
2022-09-05T02:07:19.317Z,85.97
2022-09-05T02:08:32.031Z,85.74
2022-09-05T02:09:42.508Z,85.81
2022-09-05T02:10:53.170Z,85.38
2022-09-05T02:11:58.342Z,85.52
2022-09-05T02:13:12.686Z,85.70
2022-09-05T02:14:27.054Z,85.55
2022-09-05T02:15:41.425Z,85.46
2022-09-05T02:16:45.279Z,85.55
2022-09-05T02:17:51.855Z,85.26
2022-09-05T02:18:56.864Z,85.46
2022-09-05T02:20:23.483Z,85.12
2022-09-05T02:21:32.195Z,84.90
2022-09-05T02:22:42.645Z,85.02
2022-09-05T02:23:47.917Z,84.94
2022-09-05T02:24:58.539Z,84.91
2022-09-05T02:26:21.083Z,84.73
2022-09-05T02:28:03.829Z,85.06
2022-09-05T02:29:28.852Z,85.36
2022-09-05T02:30:36.074Z,85.23
2022-09-05T02:31:40.760Z,85.22
2022-09-05T02:33:01.446Z,85.30
2022-09-05T02:34:15.671Z,85.34
2022-09-05T02:35:23.536Z,85.30
2022-09-05T02:36:44.724Z,85.69
2022-09-05T02:39:09.175Z,85.32
2022-09-05T02:45:02.628Z,85.37
2022-09-05T02:45:08.708Z,85.82
2022-09-05T02:45:09.703Z,85.55
2022-09-05T02:45:20.203Z,85.56
2022-09-05T02:45:39.071Z,85.61
2022-09-05T02:46:48.596Z,85.54
2022-09-05T02:48:15.617Z,85.52
2022-09-05T02:51:15.885Z,86.02
2022-09-05T02:55:05.738Z,86.33
2022-09-05T02:57:24.566Z,86.60
2022-09-05T02:57:39.946Z,86.74
2022-09-05T02:57:43.491Z,87.20
2022-09-05T02:58:04.133Z,86.68
2022-09-05T02:59:09.737Z,86.74
2022-09-05T03:00:16.372Z,86.50
2022-09-05T03:01:30.560Z,86.39
2022-09-05T03:02:32.511Z,86.41
2022-09-05T03:03:52.245Z,86.26
2022-09-05T03:05:09.974Z,86.02
2022-09-05T03:06:35.068Z,85.90
2022-09-05T03:07:46.154Z,86.00
2022-09-05T03:09:16.627Z,85.98
2022-09-05T03:10:26.682Z,85.92
2022-09-05T03:11:50.307Z,85.90
2022-09-05T03:13:07.539Z,85.98
2022-09-05T03:14:21.387Z,86.03
2022-09-05T03:15:32.165Z,86.38
2022-09-05T03:16:37.035Z,86.60
2022-09-05T03:18:20.616Z,86.88
2022-09-05T03:19:46.501Z,86.84
2022-09-05T03:21:09.479Z,86.74
2022-09-05T03:22:14.704Z,86.61
2022-09-05T03:23:19.574Z,86.48
2022-09-05T03:24:24.374Z,86.42
2022-09-05T03:25:26.138Z,86.24
2022-09-05T03:26:34.037Z,86.33
2022-09-05T03:27:35.792Z,86.50
2022-09-05T03:28:37.569Z,86.79
2022-09-05T03:30:03.201Z,86.80
2022-09-05T03:31:22.049Z,86.71
2022-09-05T03:32:34.822Z,86.72
2022-09-05T03:33:52.752Z,86.64
2022-09-05T03:35:20.694Z,86.34
2022-09-05T03:36:45.605Z,85.96
2022-09-05T03:38:07.874Z,85.91
2022-09-05T03:39:24.995Z,85.86
2022-09-05T03:40:36.956Z,86.00
2022-09-05T03:41:40.551Z,86.08
2022-09-05T03:42:45.415Z,86.03
2022-09-05T03:44:02.716Z,85.73
2022-09-05T03:45:05.803Z,85.94
2022-09-05T03:46:12.434Z,85.93
2022-09-05T03:47:32.771Z,85.97
2022-09-05T03:48:34.715Z,86.17
2022-09-05T03:51:39.792Z,85.97
2022-09-05T03:57:04.528Z,86.06
2022-09-05T03:57:08.043Z,85.82
2022-09-05T03:57:15.328Z,85.84
2022-09-05T03:57:18.472Z,85.92
2022-09-05T03:57:42.228Z,86.04
2022-09-05T03:58:57.120Z,85.92
2022-09-05T04:00:09.964Z,86.17
2022-09-05T04:02:08.846Z,85.97
2022-09-05T04:07:04.991Z,86.03
2022-09-05T04:08:11.330Z,86.09
2022-09-05T04:08:15.589Z,86.49
2022-09-05T04:08:23.726Z,86.70
2022-09-05T04:09:11.847Z,86.45
2022-09-05T04:10:27.159Z,86.75
2022-09-05T04:11:39.585Z,86.91
2022-09-05T04:12:41.344Z,86.94
2022-09-05T04:13:46.154Z,86.62
2022-09-05T04:14:51.168Z,86.63
2022-09-05T04:16:15.395Z,86.67
2022-09-05T04:17:36.343Z,86.36
2022-09-05T04:18:43.082Z,86.63
2022-09-05T04:19:50.827Z,86.61
2022-09-05T04:20:55.986Z,86.54
2022-09-05T04:22:03.910Z,86.51
2022-09-05T04:23:27.192Z,86.59
2022-09-05T04:24:33.798Z,86.79
2022-09-05T04:25:58.495Z,86.87
2022-09-05T04:27:27.695Z,87.36
2022-09-05T04:28:41.302Z,87.17
2022-09-05T04:30:06.569Z,87.51
2022-09-05T04:31:31.059Z,87.26
2022-09-05T04:32:54.761Z,87.23
2022-09-05T04:34:18.135Z,87.57
2022-09-05T04:35:29.197Z,87.46
2022-09-05T04:36:33.849Z,87.53
2022-09-05T04:37:48.899Z,87.45
2022-09-05T04:39:08.670Z,87.39
2022-09-05T04:40:33.512Z,87.07
2022-09-05T04:41:55.613Z,87.18
2022-09-05T04:43:01.005Z,87.04
2022-09-05T04:44:07.887Z,87.06
2022-09-05T04:45:12.220Z,87.02
2022-09-05T04:46:25.318Z,87.00
2022-09-05T04:47:39.155Z,87.14
2022-09-05T04:48:48.375Z,87.25
2022-09-05T04:49:53.171Z,87.31
2022-09-05T04:51:04.438Z,87.51
2022-09-05T04:52:30.841Z,87.54
2022-09-05T04:53:37.675Z,87.55
2022-09-05T04:54:51.576Z,87.78
2022-09-05T04:55:58.069Z,87.95
2022-09-05T04:57:13.624Z,88.11
2022-09-05T04:58:50.758Z,88.07
2022-09-05T05:05:58.426Z,88.08
2022-09-05T05:06:01.307Z,88.15
2022-09-05T05:06:02.822Z,88.42
2022-09-05T05:06:05.906Z,88.17
2022-09-05T05:06:10.851Z,88.21
2022-09-05T05:07:07.736Z,88.49
2022-09-05T05:08:38.155Z,88.71
2022-09-05T05:09:45.040Z,88.73
2022-09-05T05:15:51.598Z,88.72
2022-09-05T05:17:58.509Z,88.56
2022-09-05T05:17:59.391Z,88.49
2022-09-05T05:18:00.362Z,88.59
2022-09-05T05:18:12.192Z,88.49
2022-09-05T05:18:36.684Z,88.33
2022-09-05T05:20:39.326Z,88.33
2022-09-05T05:21:18.310Z,88.40
2022-09-05T05:22:20.427Z,88.19
2022-09-05T05:23:40.159Z,87.96
2022-09-05T05:24:44.058Z,88.25
2022-09-05T05:25:45.874Z,88.07
2022-09-05T05:26:57.263Z,88.00
2022-09-05T05:28:24.072Z,88.13
2022-09-05T05:29:29.458Z,88.37
2022-09-05T05:30:33.399Z,88.18
2022-09-05T05:31:38.822Z,88.55
2022-09-05T05:32:46.872Z,88.40
2022-09-05T05:33:50.558Z,88.50
2022-09-05T05:34:57.879Z,88.33
2022-09-05T05:36:01.509Z,88.39
2022-09-05T05:37:16.375Z,88.50
2022-09-05T05:38:25.186Z,88.50
2022-09-05T05:39:28.751Z,88.44
2022-09-05T05:40:41.352Z,88.63
2022-09-05T05:41:54.459Z,88.54
2022-09-05T05:43:13.700Z,88.67
2022-09-05T05:44:17.820Z,88.68
2022-09-05T05:45:19.598Z,88.60
2022-09-05T05:46:41.458Z,88.37
2022-09-05T05:47:44.915Z,88.15
2022-09-05T05:48:53.789Z,88.10
2022-09-05T05:49:59.451Z,88.10
2022-09-05T05:51:34.553Z,88.06
2022-09-05T05:53:02.636Z,87.75
2022-09-05T05:54:04.405Z,87.73
2022-09-05T05:55:51.798Z,87.88
2022-09-05T05:57:10.304Z,87.93
2022-09-05T05:58:52.317Z,88.32
2022-09-05T06:00:01.476Z,88.38
2022-09-05T06:01:32.948Z,88.11
2022-09-05T06:02:39.487Z,88.34
2022-09-05T06:04:00.141Z,87.91
2022-09-05T06:05:14.162Z,88.01
2022-09-05T06:06:15.973Z,87.89
2022-09-05T06:08:31.879Z,88.02
2022-09-05T06:14:49.504Z,87.78
2022-09-05T06:14:55.252Z,87.70
2022-09-05T06:14:57.484Z,87.78
2022-09-05T06:15:06.396Z,87.87
2022-09-05T06:15:53.031Z,87.66
2022-09-05T06:17:17.015Z,87.54
2022-09-05T06:18:31.456Z,87.74
2022-09-05T06:20:53.054Z,88.09
2022-09-05T06:22:09.436Z,88.29
2022-09-05T06:22:55.254Z,88.07
2022-09-05T06:24:01.023Z,88.08
2022-09-05T06:25:16.998Z,88.05
2022-09-05T06:26:25.733Z,87.96
2022-09-05T06:27:27.930Z,88.04
2022-09-05T06:28:31.098Z,87.72
2022-09-05T06:29:55.972Z,87.82
2022-09-05T06:31:29.499Z,87.60
2022-09-05T06:32:58.087Z,87.76
2022-09-05T06:34:27.917Z,87.22
2022-09-05T06:35:52.950Z,87.14
2022-09-05T06:37:16.592Z,87.20
2022-09-05T06:38:28.429Z,86.84
2022-09-05T06:39:35.968Z,87.03
2022-09-05T06:40:51.350Z,87.08
2022-09-05T06:42:07.424Z,87.26
2022-09-05T06:43:37.220Z,86.99
2022-09-05T06:45:09.056Z,86.92
2022-09-05T06:46:55.367Z,86.81
2022-09-05T06:48:23.804Z,86.63
2022-09-05T06:49:59.069Z,85.80
2022-09-05T06:51:26.316Z,85.20
2022-09-05T06:52:37.645Z,85.43
2022-09-05T06:54:08.688Z,85.71
2022-09-05T06:55:13.533Z,85.41
2022-09-05T06:56:25.688Z,85.50
2022-09-05T06:57:38.641Z,85.07
2022-09-05T06:59:01.372Z,85.40
2022-09-05T07:00:24.145Z,85.02
2022-09-05T07:01:55.238Z,85.21
2022-09-05T07:03:07.730Z,84.97
2022-09-05T07:05:24.708Z,84.48
2022-09-05T07:06:05.066Z,84.73
2022-09-05T07:07:09.317Z,84.78
2022-09-05T07:08:35.681Z,84.76
2022-09-05T07:09:38.918Z,84.71
2022-09-05T07:10:44.961Z,84.14
2022-09-05T07:11:59.359Z,83.84
2022-09-05T07:13:21.486Z,83.83
2022-09-05T07:14:25.232Z,83.27
2022-09-05T07:15:27.834Z,83.42
2022-09-05T07:16:44.389Z,83.41
2022-09-05T07:18:13.726Z,83.92
2022-09-05T07:19:34.290Z,83.54
2022-09-05T07:21:15.599Z,83.46
2022-09-05T07:22:06.491Z,82.88
2022-09-05T07:24:07.014Z,82.82
2022-09-05T07:25:09.286Z,82.71
2022-09-05T07:26:13.214Z,82.48
2022-09-05T07:27:41.840Z,82.78
2022-09-05T07:29:00.864Z,82.18
2022-09-05T07:30:05.085Z,81.95
2022-09-05T07:31:10.679Z,82.25
2022-09-05T07:32:15.956Z,82.29
2022-09-05T07:33:22.758Z,81.75
2022-09-05T07:34:27.769Z,81.58
2022-09-05T07:35:41.830Z,80.82
2022-09-05T07:36:47.699Z,81.47
2022-09-05T07:37:57.342Z,81.81
2022-09-05T07:39:25.140Z,81.39
2022-09-05T07:40:26.621Z,81.14
2022-09-05T07:41:39.731Z,81.29
2022-09-05T07:42:49.927Z,81.61
2022-09-05T07:44:17.522Z,81.65
2022-09-05T07:45:25.454Z,81.37
2022-09-05T07:46:31.054Z,80.97
2022-09-05T07:47:35.909Z,80.80
2022-09-05T07:48:40.287Z,80.08
2022-09-05T07:50:07.801Z,80.44
2022-09-05T07:56:46.167Z,80.54
2022-09-05T07:56:56.723Z,81.26
2022-09-05T07:56:58.899Z,80.28
2022-09-05T07:57:09.515Z,81.27
2022-09-05T07:57:10.687Z,80.20
2022-09-05T07:58:08.067Z,80.36
2022-09-05T07:59:14.041Z,79.71
2022-09-05T08:00:25.614Z,79.87
2022-09-05T08:01:31.122Z,79.92
2022-09-05T08:02:47.038Z,79.81
2022-09-05T08:03:56.394Z,79.83
2022-09-05T08:05:02.911Z,79.47
2022-09-05T08:06:11.525Z,79.17
2022-09-05T08:07:48.971Z,79.30
2022-09-05T08:09:21.913Z,79.21
2022-09-05T08:11:00.540Z,78.62
2022-09-05T08:12:09.423Z,78.42
2022-09-05T08:13:23.592Z,78.21
2022-09-05T08:14:45.843Z,77.75
2022-09-05T08:16:10.997Z,78.75
2022-09-05T08:17:17.836Z,77.86
2022-09-05T08:18:37.100Z,78.97
2022-09-05T08:19:38.945Z,78.18
2022-09-05T08:20:40.746Z,77.33
2022-09-05T08:21:50.943Z,77.55
2022-09-05T08:22:59.424Z,77.26
2022-09-05T08:24:01.200Z,76.88
2022-09-05T08:25:19.485Z,76.21
2022-09-05T08:26:31.315Z,77.27
2022-09-05T08:27:45.155Z,77.55
2022-09-05T08:29:05.946Z,75.78
2022-09-05T08:30:26.203Z,76.03
2022-09-05T08:31:35.836Z,76.92
2022-09-05T08:32:44.560Z,76.07
2022-09-05T08:33:48.573Z,77.56
2022-09-05T08:35:02.998Z,75.37
2022-09-05T08:36:10.887Z,74.72
2022-09-05T08:37:21.265Z,75.34
2022-09-05T08:38:24.605Z,74.94
2022-09-05T08:39:29.711Z,75.90
2022-09-05T08:40:36.276Z,75.38
2022-09-05T08:41:59.825Z,75.17
2022-09-05T08:44:58.247Z,75.48
2022-09-05T08:46:43.402Z,75.37
2022-09-05T08:46:49.082Z,74.28
2022-09-05T08:48:11.962Z,74.53
2022-09-05T08:49:37.833Z,73.98
2022-09-05T08:50:45.168Z,73.26
2022-09-05T08:51:57.668Z,73.36
2022-09-05T08:53:02.491Z,74.56
2022-09-05T08:54:16.822Z,73.89
2022-09-05T08:55:30.851Z,73.82
2022-09-05T08:56:48.064Z,73.28
2022-09-05T08:58:01.209Z,74.03
2022-09-05T08:59:28.099Z,72.46
2022-09-05T09:00:36.298Z,72.50
2022-09-05T09:01:44.552Z,72.86
2022-09-05T09:03:12.985Z,72.72
2022-09-05T09:04:50.284Z,71.85
2022-09-05T09:06:14.407Z,72.96
2022-09-05T09:07:51.193Z,73.67
2022-09-05T09:09:05.115Z,72.67
2022-09-05T09:10:25.949Z,72.98
2022-09-05T09:11:31.896Z,71.88
2022-09-05T09:12:33.801Z,71.58
2022-09-05T09:13:56.156Z,72.56
2022-09-05T09:15:11.662Z,71.55
2022-09-05T09:16:34.140Z,71.33
2022-09-05T09:17:46.234Z,72.42
2022-09-05T09:18:48.100Z,73.44
2022-09-05T09:20:10.333Z,73.81
2022-09-05T09:21:24.615Z,75.31
2022-09-05T09:22:37.377Z,74.34
2022-09-05T09:23:42.142Z,71.27
2022-09-05T09:25:16.127Z,71.71
2022-09-05T09:26:22.465Z,73.20
2022-09-05T09:28:48.711Z,73.48
2022-09-05T09:29:08.451Z,72.01
2022-09-05T09:30:12.383Z,72.63
2022-09-05T09:31:20.422Z,72.08
2022-09-05T09:32:26.529Z,73.22
2022-09-05T09:33:37.764Z,75.36
2022-09-05T09:34:49.257Z,74.92
2022-09-05T09:35:54.362Z,73.93
2022-09-05T09:37:12.373Z,74.05
2022-09-05T09:38:25.778Z,71.57
2022-09-05T09:39:38.864Z,71.44
2022-09-05T09:41:03.080Z,72.82
2022-09-05T09:42:18.977Z,71.53
2022-09-05T09:43:54.324Z,72.36
2022-09-05T09:44:56.314Z,72.90
2022-09-05T09:46:04.087Z,71.47
2022-09-05T09:47:11.124Z,69.18
2022-09-05T09:48:31.624Z,70.75
2022-09-05T09:49:44.515Z,71.16
2022-09-05T09:51:00.671Z,71.94
2022-09-05T09:52:05.819Z,71.17
2022-09-05T09:53:37.242Z,71.76
2022-09-05T09:54:51.404Z,71.87
2022-09-05T09:56:16.063Z,71.45
2022-09-05T09:57:17.824Z,70.22
2022-09-05T09:58:29.513Z,70.11
2022-09-05T09:59:31.493Z,70.09
2022-09-05T10:00:53.455Z,71.64
2022-09-05T10:04:31.342Z,70.61
2022-09-05T10:10:36.060Z,70.24
2022-09-05T10:10:38.700Z,69.87
2022-09-05T10:10:48.189Z,68.19
2022-09-05T10:10:53.063Z,70.96
2022-09-05T10:11:08.705Z,69.91
2022-09-05T10:12:19.249Z,68.51
2022-09-05T10:13:23.987Z,68.23
2022-09-05T10:14:51.103Z,69.13
2022-09-05T10:15:53.151Z,68.97
2022-09-05T10:17:13.970Z,67.32
2022-09-05T10:18:34.815Z,69.08
2022-09-05T10:21:16.709Z,67.07
2022-09-05T10:22:38.156Z,65.66
2022-09-05T10:23:47.093Z,65.70
2022-09-05T10:25:19.298Z,65.15
2022-09-05T10:26:27.655Z,64.98
2022-09-05T10:27:39.591Z,65.31
2022-09-05T10:28:55.781Z,66.78
2022-09-05T10:30:29.515Z,63.57
2022-09-05T10:34:47.562Z,64.35
2022-09-05T10:35:13.965Z,63.56
2022-09-05T10:35:17.388Z,64.59
2022-09-05T10:36:23.647Z,63.82
2022-09-05T10:37:40.633Z,63.46
2022-09-05T10:38:45.088Z,63.14
2022-09-05T10:39:52.978Z,62.38
2022-09-05T10:41:20.311Z,60.23
2022-09-05T10:42:31.679Z,61.35
2022-09-05T10:43:44.541Z,62.62
2022-09-05T10:44:49.462Z,62.74
2022-09-05T10:45:54.323Z,62.28
2022-09-05T10:46:59.304Z,61.93
2022-09-05T10:48:21.320Z,60.34
2022-09-05T10:49:30.459Z,60.18
2022-09-05T10:50:46.052Z,60.72
2022-09-05T10:52:07.008Z,60.33
2022-09-05T10:53:40.170Z,59.78
2022-09-05T10:54:42.086Z,59.51
2022-09-05T10:55:43.932Z,59.27
2022-09-05T10:56:48.330Z,60.52
2022-09-05T10:57:55.943Z,59.87
2022-09-05T11:01:48.569Z,61.58
2022-09-05T11:02:20.877Z,60.07
2022-09-05T11:02:26.037Z,59.52
2022-09-05T11:03:47.883Z,58.96
2022-09-05T11:04:55.742Z,60.34
2022-09-05T11:05:59.079Z,58.18
2022-09-05T11:07:14.545Z,58.36
2022-09-05T11:08:25.512Z,57.39
2022-09-05T11:09:27.316Z,59.53
2022-09-05T11:10:33.910Z,58.34
2022-09-05T11:11:46.330Z,58.63
2022-09-05T11:13:06.590Z,60.22
2022-09-05T11:14:27.034Z,59.75
2022-09-05T11:15:57.245Z,57.80
2022-09-05T11:17:24.630Z,57.73
2022-09-05T11:18:56.446Z,59.13
2022-09-05T11:20:06.030Z,58.20
2022-09-05T11:21:16.227Z,57.14
2022-09-05T11:22:22.400Z,57.71
2022-09-05T11:23:33.384Z,59.18
2022-09-05T11:24:36.700Z,58.69
2022-09-05T11:25:41.231Z,58.16
2022-09-05T11:26:51.434Z,59.03
2022-09-05T11:28:19.294Z,57.28
2022-09-05T11:29:44.173Z,57.00
2022-09-05T11:30:51.473Z,56.90
2022-09-05T11:36:14.676Z,57.77
2022-09-05T11:39:26.297Z,57.05
2022-09-05T11:39:47.612Z,57.24
2022-09-05T11:39:56.619Z,57.38
2022-09-05T11:40:06.078Z,57.56
2022-09-05T11:40:28.409Z,57.21
2022-09-05T11:41:20.511Z,58.03
2022-09-05T11:42:41.836Z,57.01
2022-09-05T11:44:25.042Z,56.27
2022-09-05T11:45:41.784Z,58.14
2022-09-05T11:46:59.381Z,56.97
2022-09-05T11:48:35.468Z,58.05
2022-09-05T11:50:02.198Z,56.24
2022-09-05T11:51:10.720Z,57.13
2022-09-05T11:52:25.108Z,56.80
2022-09-05T11:53:30.040Z,56.99
2022-09-05T11:55:08.556Z,57.66
2022-09-05T11:56:29.272Z,56.54
2022-09-05T11:57:36.771Z,57.47
2022-09-05T11:58:45.053Z,56.37
2022-09-05T12:00:32.016Z,58.21
2022-09-05T12:01:41.227Z,56.62
2022-09-05T12:03:01.474Z,56.63
2022-09-05T12:04:08.078Z,56.84
2022-09-05T12:05:48.478Z,56.28
2022-09-05T12:07:30.503Z,55.78
2022-09-05T12:08:44.722Z,55.85
2022-09-05T12:10:03.329Z,55.07
2022-09-05T12:11:23.641Z,55.72
2022-09-05T12:12:41.617Z,56.11
2022-09-05T12:13:51.331Z,55.32
2022-09-05T12:15:11.500Z,53.97
2022-09-05T12:16:26.845Z,53.62
2022-09-05T12:17:47.692Z,53.73
2022-09-05T12:19:19.312Z,54.30
2022-09-05T12:20:24.943Z,53.68
2022-09-05T12:21:37.646Z,53.19
2022-09-05T12:22:47.631Z,52.65
2022-09-05T12:25:15.476Z,53.99
2022-09-05T12:27:36.365Z,54.55
2022-09-05T12:27:40.932Z,54.83
2022-09-05T12:29:27.968Z,53.99
2022-09-05T12:30:14.184Z,55.26
2022-09-05T12:32:36.635Z,54.99
2022-09-05T12:36:01.414Z,54.19
2022-09-05T12:36:07.972Z,53.99
2022-09-05T12:40:21.417Z,53.88
2022-09-05T12:40:35.594Z,54.51
2022-09-05T12:40:58.390Z,54.29
2022-09-05T12:41:36.240Z,54.95
2022-09-05T12:42:14.475Z,54.36
2022-09-05T12:44:20.886Z,55.22
2022-09-05T12:44:46.639Z,53.43
2022-09-05T12:46:24.297Z,54.18
2022-09-05T12:47:30.298Z,55.11
2022-09-05T12:48:38.995Z,54.13
2022-09-05T12:49:52.114Z,53.94
2022-09-05T12:50:55.045Z,54.91
2022-09-05T12:52:11.081Z,53.74
2022-09-05T12:53:19.045Z,54.60
2022-09-05T12:54:34.153Z,54.08
2022-09-05T12:55:40.940Z,52.64
2022-09-05T13:00:41.120Z,53.98
2022-09-05T13:03:01.068Z,53.71
2022-09-05T13:03:02.255Z,54.58
2022-09-05T13:03:14.741Z,53.94
2022-09-05T13:03:15.400Z,55.24
2022-09-05T13:04:18.228Z,54.41
2022-09-05T13:05:27.313Z,52.56
2022-09-05T13:06:31.508Z,54.62
2022-09-05T13:07:49.288Z,53.91
2022-09-05T13:08:59.391Z,53.11
2022-09-05T13:11:24.130Z,54.48
2022-09-05T13:14:58.897Z,54.29
2022-09-05T13:15:03.005Z,53.71
2022-09-05T13:15:03.095Z,54.33
2022-09-05T13:15:55.457Z,54.51
2022-09-05T13:16:58.429Z,54.03
2022-09-05T13:18:12.173Z,54.50
2022-09-05T13:19:32.538Z,54.85
2022-09-05T13:20:36.951Z,53.13
2022-09-05T13:21:41.190Z,53.79
2022-09-05T13:22:48.931Z,54.02
2022-09-05T13:24:01.864Z,55.09
2022-09-05T13:25:08.585Z,55.53
2022-09-05T13:26:24.793Z,54.84
2022-09-05T13:27:30.004Z,56.13
2022-09-05T13:28:37.689Z,56.66
2022-09-05T13:30:56.408Z,56.61
2022-09-05T13:37:54.575Z,56.80
2022-09-05T13:38:17.619Z,55.78
2022-09-05T13:38:20.787Z,55.87
2022-09-05T13:38:21.158Z,56.50
2022-09-05T13:38:42.044Z,54.86
2022-09-05T13:38:48.935Z,55.48
2022-09-05T13:39:52.204Z,54.80
2022-09-05T13:40:58.548Z,55.07
2022-09-05T13:42:03.889Z,55.55
2022-09-05T13:43:10.903Z,54.41
2022-09-05T13:44:26.303Z,54.46
2022-09-05T13:45:30.271Z,54.63
2022-09-05T13:46:34.953Z,53.55
2022-09-05T13:47:42.627Z,53.79
2022-09-05T13:50:24.423Z,51.74
2022-09-05T13:51:31.728Z,52.07
2022-09-05T13:52:40.099Z,52.82
2022-09-05T13:53:52.049Z,53.03
2022-09-05T13:55:00.868Z,53.01
2022-09-05T13:56:21.733Z,53.86
2022-09-05T13:57:36.554Z,52.90
2022-09-05T13:58:51.006Z,53.01
2022-09-05T14:00:26.950Z,53.20
2022-09-05T14:02:07.737Z,54.24
2022-09-05T14:03:37.630Z,53.33
2022-09-05T14:05:16.257Z,53.54
2022-09-05T14:06:46.604Z,53.03
2022-09-05T14:08:11.622Z,54.28
2022-09-05T14:09:37.933Z,53.53
2022-09-05T14:10:52.249Z,52.97
2022-09-05T14:11:57.612Z,52.25
2022-09-05T14:13:02.463Z,53.27
2022-09-05T14:14:11.548Z,52.57
2022-09-05T14:15:19.374Z,53.23
2022-09-05T14:16:31.730Z,51.32
2022-09-05T14:17:54.174Z,54.00
2022-09-05T14:19:15.253Z,53.29
2022-09-05T14:20:36.631Z,53.71
2022-09-05T14:21:40.892Z,54.56
2022-09-05T14:22:55.431Z,52.02
2022-09-05T14:24:03.542Z,53.67
2022-09-05T14:25:10.891Z,55.11
2022-09-05T14:26:16.314Z,54.85
2022-09-05T14:27:26.367Z,53.63
2022-09-05T14:28:36.783Z,53.45
2022-09-05T14:30:35.560Z,54.27
2022-09-05T14:37:37.130Z,54.10
2022-09-05T14:37:42.573Z,52.62
2022-09-05T14:37:43.663Z,52.75
2022-09-05T14:37:44.261Z,54.21
2022-09-05T14:38:05.659Z,54.40
2022-09-05T14:39:23.234Z,52.78
2022-09-05T14:40:37.639Z,53.45
2022-09-05T14:42:09.388Z,54.61
2022-09-05T14:43:30.989Z,53.93
2022-09-05T14:45:01.821Z,54.77
2022-09-05T14:46:20.348Z,54.19
2022-09-05T14:47:37.779Z,56.15
2022-09-05T14:48:39.648Z,56.05
2022-09-05T14:49:56.758Z,56.06
2022-09-05T14:51:14.655Z,56.03
2022-09-05T14:52:29.527Z,56.81
2022-09-05T14:57:22.876Z,58.39
2022-09-05T15:02:41.036Z,58.05
2022-09-05T15:02:47.776Z,59.14
2022-09-05T15:02:47.776Z,59.08
2022-09-05T15:02:49.862Z,59.15
2022-09-05T15:05:11.777Z,60.19
2022-09-05T15:06:16.073Z,60.02
2022-09-05T15:07:36.653Z,60.17
2022-09-05T15:11:25.694Z,60.72
2022-09-05T15:11:47.259Z,60.96
2022-09-05T15:12:23.478Z,60.82
2022-09-05T15:13:17.193Z,60.55
2022-09-05T15:14:20.086Z,61.81
2022-09-05T15:15:29.128Z,61.58
2022-09-05T15:16:32.233Z,61.72
2022-09-05T15:17:34.946Z,61.66
2022-09-05T15:18:42.737Z,62.14
2022-09-05T15:20:05.228Z,62.10
2022-09-05T15:21:33.555Z,62.34
2022-09-05T15:22:38.390Z,62.61
2022-09-05T15:23:40.449Z,62.56
2022-09-05T15:24:59.645Z,62.92
2022-09-05T15:26:18.905Z,62.94
2022-09-05T15:27:29.865Z,62.84
2022-09-05T15:28:34.429Z,62.77
2022-09-05T15:29:36.290Z,63.32
2022-09-05T15:30:38.122Z,63.51
2022-09-05T15:31:40.424Z,63.74
2022-09-05T15:32:46.267Z,63.57
2022-09-05T15:33:52.900Z,64.10
2022-09-05T15:34:56.486Z,64.24
2022-09-05T15:35:59.373Z,64.33
2022-09-05T15:37:08.788Z,64.61
2022-09-05T15:38:25.706Z,64.92
2022-09-05T15:39:29.433Z,64.55
2022-09-05T15:40:31.353Z,64.99
2022-09-05T15:41:38.047Z,64.60
2022-09-05T15:42:55.035Z,65.04
2022-09-05T15:44:09.319Z,65.42
2022-09-05T15:45:12.988Z,65.52
2022-09-05T15:46:20.370Z,65.19
2022-09-05T15:47:24.724Z,65.56
2022-09-05T15:48:34.602Z,65.62
2022-09-05T15:49:48.784Z,65.78
2022-09-05T15:50:52.549Z,66.05
2022-09-05T15:51:57.190Z,66.17
2022-09-05T15:52:59.145Z,66.26
2022-09-05T15:54:01.990Z,66.35
2022-09-05T15:55:16.230Z,66.39
2022-09-05T15:56:19.929Z,66.15
2022-09-05T15:57:27.423Z,66.17
2022-09-05T15:58:52.129Z,66.11
2022-09-05T15:59:57.540Z,66.59
2022-09-05T16:01:11.141Z,66.81
2022-09-05T16:02:17.786Z,66.96
2022-09-05T16:03:58.167Z,67.16
2022-09-05T16:10:27.379Z,67.27
2022-09-05T16:10:33.563Z,67.48
2022-09-05T16:10:34.718Z,67.57
2022-09-05T16:10:41.150Z,67.74
2022-09-05T16:10:46.461Z,68.11
2022-09-05T16:13:13.303Z,67.93
2022-09-05T16:14:24.145Z,67.73
2022-09-05T16:18:53.055Z,67.54
2022-09-05T16:23:14.635Z,68.37
2022-09-05T16:23:16.999Z,68.04
2022-09-05T16:23:24.446Z,68.74
2022-09-05T16:23:25.118Z,68.68
2022-09-05T16:23:34.061Z,68.84
2022-09-05T16:24:26.107Z,68.64
2022-09-05T16:25:42.979Z,68.35
2022-09-05T16:26:47.435Z,68.97
2022-09-05T16:27:49.972Z,69.58
2022-09-05T16:29:12.107Z,69.76
2022-09-05T16:30:20.746Z,69.54
2022-09-05T16:31:32.402Z,69.14
2022-09-05T16:32:37.212Z,69.45
2022-09-05T16:33:44.188Z,69.71
2022-09-05T16:34:52.906Z,69.62
2022-09-05T16:36:24.022Z,69.22
2022-09-05T16:37:35.963Z,69.52
2022-09-05T16:38:50.728Z,69.98